Ana Sayfa
METAR-TAF:

METAR-TAF

Havaalanları :

Victoria Falls Havalimanı

Victoria Şelalesi, Zimbabve

Enlem: 18-06S, Boylam: 025-51E, yükseklik: 1061 m

Güncel hava durumu gözlemi

Rapor saat 11:00 UTC de 3 saat ve 36 dakika önce yapıldı.
Rüzgar doğudan 11 kt, doğu/kuzeydoğu ve doğu/güneydoğu arasında değişken
Sıcaklık 20°C
Nem 40%
Basınç 1028 hPa
Görüş mesafesi 10 km veya daha fazla
1500 m altında bulut yok ve kümülonimbus yok

METAR: FVFA 181100Z 09011KT 060V120 CAVOK 20/06 Q1028 NOSIG

Saat: 16:36 (14:36 UTC)

Tahmin

Rapor saat 10:00 UTC de 4 saat ve 36 dakika önce yapıldı.
Ayın 18'si saat 12 UTC'den ayın 19'si saat 18 UTC'ye kadar geçerli Tahmin
Rüzgar doğudan 10 kt
Görüş mesafesi 10 km veya daha fazla
1500 m altında bulut yok ve kümülonimbus yok

TAF: FVFA 181000Z 1812/1918 09010KT CAVOK

4.000'den fazla havaalanı için hava durumu gözlemleri ve tahminleri (METAR ve TAF raporları).

Kullanılabilir istasyonlar harita üzerinde sarı ve kırmızı noktalarla gösterilir.

İstasyonun adını görmek için fareyi noktanın üzerinde gezdirin.

Sonrasında hava gözlem ve tahminlerini görmek için tıklayın.

Haritayı değiştirmek için: yaklaştırmak için siyah artı işaretli yeşil düğmeye ve uzaklaştırmak için de eksi işaretli düğmeye hızla tıklayın; bitişik haritalar için yeşil okları kullanın.


METAR-TAF: